Joy — V2EI9 — position and weather

sailwx.info

Track history (hours):
 
Tides and Currents Weather Stations Pressure Air Temp Water Temp Dewpoint Dewpoint Depression Visibility Wind Speed Wind Dir Waves Ship Positions

Joy

Last reported at 2015-Jun-29 19:31 UTC. Time now 2015-Jun-30 21:23 UTC.
Position N 55°25' E 019°28'.

Length 105 m; draft 3.9 m.

Type: Cargo ship. MMSI: 305444000.

Date/timePositionNaut miles runAvg speedWind from/ knotsBaromVisibWave heightAir tempDewpointWater temp
2015-Jun-29 19:31N 55°25' E 019°28'8 8.1
2015-Jun-29 18:31N 55°22' E 019°15'7 7.5
2015-Jun-29 17:31N 55°19' E 019°03'7 6.9
2015-Jun-29 16:33N 55°16' E 018°52'7 6.8
2015-Jun-29 15:33N 55°13' E 018°41'7 6.8
2015-Jun-29 14:34N 55°10' E 018°30'7 6.9
2015-Jun-29 13:33N 55°07' E 018°19'6 6.0
2015-Jun-29 12:33N 55°05' E 018°09'6 5.8
2015-Jun-29 11:33N 55°03' E 018°00'70 7.6
2015-Jun-29 02:22N 54°44' E 016°04'8 9.2
2015-Jun-29 01:32N 54°43' E 015°50'9 9.1
2015-Jun-29 00:31N 54°42' E 015°35'9 9.0
2015-Jun-28 23:33N 54°40' E 015°20'9 9.0
2015-Jun-28 22:33N 54°39' E 015°04'9 9.2
2015-Jun-28 21:31N 54°37' E 014°48'61 8.7
2015-Jun-28 14:32N 55°06' E 013°15'9 9.3
2015-Jun-28 13:33N 55°12' E 013°03'9 9.3
2015-Jun-28 12:33N 55°16' E 012°48'8 7.9
2015-Jun-28 11:33N 55°21' E 012°38'9 9.1
2015-Jun-28 10:34N 55°30' E 012°41'10 9.6
2015-Jun-28 09:34N 55°40' E 012°41'9 9.4
2015-Jun-28 08:33N 55°49' E 012°41'9 9.0
2015-Jun-28 07:33N 55°58' E 012°37'8 7.6
2015-Jun-28 06:34N 56°05' E 012°34'9 9.3
2015-Jun-28 05:33N 56°11' E 012°21'9 9.4
2015-Jun-28 04:34N 56°16' E 012°07'9 9.0
2015-Jun-28 03:34N 56°24' E 011°60'10 9.6
2015-Jun-28 02:34N 56°34' E 011°57'9 9.4
2015-Jun-28 01:34N 56°43' E 011°53'10 9.7
2015-Jun-28 00:34N 56°52' E 011°47'12 9.4
2015-Jun-27 23:14N 57°04' E 011°40'6 9.0
2015-Jun-27 22:33N 57°10' E 011°36'9 8.9
2015-Jun-27 21:33N 57°18' E 011°30'9 8.9
2015-Jun-27 20:33N 57°26' E 011°25'8 8.5
2015-Jun-27 19:33N 57°33' E 011°14'9 8.6
2015-Jun-27 18:32N 57°39' E 011°02'9 9.3
2015-Jun-27 17:33N 57°45' E 010°50'9 8.9
2015-Jun-27 16:33N 57°48' E 010°34'269 9.2
2015-Jun-26 11:12N 54°25' E 005°16'7 9.2
2015-Jun-26 10:30N 54°20' E 005°10'10 9.1
2015-Jun-26 09:22N 54°11' E 005°00'7 8.9
2015-Jun-26 08:34N 54°05' E 004°56'9 9.2
2015-Jun-26 07:33N 53°55' E 004°54'9 9.1
2015-Jun-26 06:33N 53°46' E 004°53'9 8.6
2015-Jun-26 05:34N 53°38' E 004°51'8 7.9
2015-Jun-26 04:34N 53°31' E 004°46'8 8.1
2015-Jun-26 03:33N 53°23' E 004°41'8 8.3
2015-Jun-26 02:32N 53°15' E 004°35'9 9.2
2015-Jun-26 01:34N 53°07' E 004°29'9 9.3
2015-Jun-26 00:34N 52°59' E 004°21'10 9.6
2015-Jun-25 23:33N 52°51' E 004°14'10 9.8
2015-Jun-25 22:34N 52°43' E 004°04'10 9.7
2015-Jun-25 21:34N 52°36' E 003°53'10 9.8
2015-Jun-25 20:33N 52°29' E 003°41'10 9.7
2015-Jun-25 19:33N 52°19' E 003°39'1010.0
2015-Jun-25 18:34N 52°10' E 003°42'0 0.3
2015-Jun-25 17:33N 52°09' E 003°42'0 0.0
2015-Jun-25 16:33N 52°09' E 003°42'0 0.0
2015-Jun-25 15:30N 52°09' E 003°42'0 0.0
2015-Jun-25 14:24N 52°09' E 003°42'0 0.0
2015-Jun-25 13:33N 52°09' E 003°42'0 0.1
2015-Jun-25 12:33N 52°09' E 003°42'0 0.1
2015-Jun-25 11:30N 52°09' E 003°42'0 0.0
2015-Jun-25 10:33N 52°09' E 003°42'0 0.0
2015-Jun-25 09:33N 52°09' E 003°42'0 0.0
2015-Jun-25 08:33N 52°09' E 003°42'0 0.0
2015-Jun-25 05:33N 52°09' E 003°42'0 0.1
2015-Jun-25 04:21N 52°09' E 003°42'0 0.0
2015-Jun-25 03:27N 52°09' E 003°42'0 0.0
2015-Jun-25 02:30N 52°09' E 003°42'0 0.0
2015-Jun-25 01:33N 52°09' E 003°42'6 6.4
2015-Jun-25 00:33N 52°04' E 003°48'1111.5
2015-Jun-24 23:33N 51°59' E 004°05'1312.6
2015-Jun-24 22:34N 51°54' E 004°23'1 1.2
2015-Jun-24 21:33N 51°55' E 004°25'0 0.0
2015-Jun-24 20:33N 51°55' E 004°25'0 0.0
2015-Jun-24 19:33N 51°55' E 004°25'0 0.0
2015-Jun-24 18:33N 51°55' E 004°25'0 0.0
2015-Jun-24 17:33N 51°55' E 004°25'0 0.0
2015-Jun-24 16:33N 51°55' E 004°25'0 0.0
2015-Jun-24 15:33N 51°55' E 004°25'0 0.0
2015-Jun-24 14:33N 51°55' E 004°25'0 0.0
2015-Jun-24 13:33N 51°55' E 004°25'0 0.0
2015-Jun-24 12:33N 51°55' E 004°25'0 0.0
2015-Jun-24 11:33N 51°55' E 004°25'0 0.0
2015-Jun-24 10:33N 51°55' E 004°25'0 0.0
2015-Jun-24 09:33N 51°55' E 004°25'0 0.0
2015-Jun-24 08:30N 51°55' E 004°25'0 0.0
2015-Jun-24 07:33N 51°55' E 004°25'0 0.0
2015-Jun-24 06:33N 51°55' E 004°25'0 0.0
2015-Jun-24 05:33N 51°55' E 004°25'0 0.0
2015-Jun-24 04:33N 51°55' E 004°25'0 0.0
2015-Jun-24 03:33N 51°55' E 004°25'0 0.0
2015-Jun-24 02:33N 51°55' E 004°25'0 0.0
2015-Jun-24 01:33N 51°55' E 004°25'0 0.0
2015-Jun-24 00:30N 51°55' E 004°25'0 0.0
2015-Jun-23 22:33N 51°55' E 004°25'0 0.0
2015-Jun-23 21:33N 51°55' E 004°25'0 0.0
2015-Jun-23 20:33N 51°55' E 004°25'0 0.0
2015-Jun-23 19:33N 51°55' E 004°25'0 0.0
2015-Jun-23 19:06N 51°55' E 004°25'24 1.0
2015-Jun-22 19:33N 51°55' E 003°45'0 0.0
2015-Jun-22 18:33N 51°55' E 003°45'0 0.0
2015-Jun-22 16:30N 51°55' E 003°45'0 0.0
2015-Jun-22 15:27N 51°55' E 003°45'0 0.1
2015-Jun-22 14:33N 51°55' E 003°45'0 0.0
2015-Jun-22 13:27N 51°55' E 003°45'0 0.0
2015-Jun-22 12:30N 51°55' E 003°45'0 0.0
2015-Jun-22 11:33N 51°55' E 003°45'0 0.1
2015-Jun-22 10:33N 51°55' E 003°45'0 0.1
2015-Jun-22 09:33N 51°55' E 003°45'0 0.0
2015-Jun-22 08:33N 51°55' E 003°45'4 4.1
2015-Jun-22 07:33N 51°57' E 003°39'52 9.6
2015-Jun-22 02:09N 51°35' E 002°23'5 8.9
2015-Jun-22 01:33N 51°31' E 002°18'8 7.8
2015-Jun-22 00:34N 51°25' E 002°11'7 7.5
2015-Jun-21 23:34N 51°18' E 002°06'7 6.8
2015-Jun-21 22:33N 51°12' E 001°60'7 7.3
2015-Jun-21 21:33N 51°09' E 001°49'7 7.5
2015-Jun-21 20:34N 51°03' E 001°41'12 8.1
2015-Jun-21 19:08N 50°55' E 001°29'5 8.9
2015-Jun-21 18:33N 50°50' E 001°26'113 9.3
2015-Jun-21 06:26N 50°05' W 001°17'190 8.6
2015-Jun-20 08:26N 48°42' W 005°38'20 9.8
2015-Jun-20 06:21N 48°23' W 005°51'810.2
2015-Jun-20 05:33N 48°15' W 005°55'1010.4
2015-Jun-20 04:33N 48°06' W 006°01'1010.4
2015-Jun-20 03:33N 47°56' W 006°06'1010.3
2015-Jun-20 02:34N 47°46' W 006°11'10 9.9
2015-Jun-20 01:33N 47°37' W 006°16'12 9.1
2015-Jun-20 00:14N 47°26' W 006°22'17 9.1
2015-Jun-19 22:23N 47°10' W 006°31'  
Track history (hours):
 
Tides and Currents Weather Stations Pressure Air Temp Water Temp Dewpoint Dewpoint Depression Visibility Wind Speed Wind Dir Waves Ship Positions

Joy

Last reported at 2015-Jun-29 19:31 UTC. Time now 2015-Jun-30 21:23 UTC.
Position N 55°25' E 019°28'.

Length 105 m; draft 3.9 m.

Type: Cargo ship. MMSI: 305444000.

Date/timePositionNaut miles runAvg speedWind from/ knotsBaromVisibWave heightAir tempDewpointWater temp
2015-Jun-29 19:31N 55°25' E 019°28'8 8.1
2015-Jun-29 18:31N 55°22' E 019°15'7 7.5
2015-Jun-29 17:31N 55°19' E 019°03'7 6.9
2015-Jun-29 16:33N 55°16' E 018°52'7 6.8
2015-Jun-29 15:33N 55°13' E 018°41'7 6.8
2015-Jun-29 14:34N 55°10' E 018°30'7 6.9
2015-Jun-29 13:33N 55°07' E 018°19'6 6.0
2015-Jun-29 12:33N 55°05' E 018°09'6 5.8
2015-Jun-29 11:33N 55°03' E 018°00'70 7.6
2015-Jun-29 02:22N 54°44' E 016°04'8 9.2
2015-Jun-29 01:32N 54°43' E 015°50'9 9.1
2015-Jun-29 00:31N 54°42' E 015°35'9 9.0
2015-Jun-28 23:33N 54°40' E 015°20'9 9.0
2015-Jun-28 22:33N 54°39' E 015°04'9 9.2
2015-Jun-28 21:31N 54°37' E 014°48'61 8.7
2015-Jun-28 14:32N 55°06' E 013°15'9 9.3
2015-Jun-28 13:33N 55°12' E 013°03'9 9.3
2015-Jun-28 12:33N 55°16' E 012°48'8 7.9
2015-Jun-28 11:33N 55°21' E 012°38'9 9.1
2015-Jun-28 10:34N 55°30' E 012°41'10 9.6
2015-Jun-28 09:34N 55°40' E 012°41'9 9.4
2015-Jun-28 08:33N 55°49' E 012°41'9 9.0
2015-Jun-28 07:33N 55°58' E 012°37'8 7.6
2015-Jun-28 06:34N 56°05' E 012°34'9 9.3
2015-Jun-28 05:33N 56°11' E 012°21'9 9.4
2015-Jun-28 04:34N 56°16' E 012°07'9 9.0
2015-Jun-28 03:34N 56°24' E 011°60'10 9.6
2015-Jun-28 02:34N 56°34' E 011°57'9 9.4
2015-Jun-28 01:34N 56°43' E 011°53'10 9.7
2015-Jun-28 00:34N 56°52' E 011°47'12 9.4
2015-Jun-27 23:14N 57°04' E 011°40'6 9.0
2015-Jun-27 22:33N 57°10' E 011°36'9 8.9
2015-Jun-27 21:33N 57°18' E 011°30'9 8.9
2015-Jun-27 20:33N 57°26' E 011°25'8 8.5
2015-Jun-27 19:33N 57°33' E 011°14'9 8.6
2015-Jun-27 18:32N 57°39' E 011°02'9 9.3
2015-Jun-27 17:33N 57°45' E 010°50'9 8.9
2015-Jun-27 16:33N 57°48' E 010°34'269 9.2
2015-Jun-26 11:12N 54°25' E 005°16'7 9.2
2015-Jun-26 10:30N 54°20' E 005°10'10 9.1
2015-Jun-26 09:22N 54°11' E 005°00'7 8.9
2015-Jun-26 08:34N 54°05' E 004°56'9 9.2
2015-Jun-26 07:33N 53°55' E 004°54'9 9.1
2015-Jun-26 06:33N 53°46' E 004°53'9 8.6
2015-Jun-26 05:34N 53°38' E 004°51'8 7.9
2015-Jun-26 04:34N 53°31' E 004°46'8 8.1
2015-Jun-26 03:33N 53°23' E 004°41'8 8.3
2015-Jun-26 02:32N 53°15' E 004°35'9 9.2
2015-Jun-26 01:34N 53°07' E 004°29'9 9.3
2015-Jun-26 00:34N 52°59' E 004°21'10 9.6
2015-Jun-25 23:33N 52°51' E 004°14'10 9.8
2015-Jun-25 22:34N 52°43' E 004°04'10 9.7
2015-Jun-25 21:34N 52°36' E 003°53'10 9.8
2015-Jun-25 20:33N 52°29' E 003°41'10 9.7
2015-Jun-25 19:33N 52°19' E 003°39'1010.0
2015-Jun-25 18:34N 52°10' E 003°42'0 0.3
2015-Jun-25 17:33N 52°09' E 003°42'0 0.0
2015-Jun-25 16:33N 52°09' E 003°42'0 0.0
2015-Jun-25 15:30N 52°09' E 003°42'0 0.0
2015-Jun-25 14:24N 52°09' E 003°42'0 0.0
2015-Jun-25 13:33N 52°09' E 003°42'0 0.1
2015-Jun-25 12:33N 52°09' E 003°42'0 0.1
2015-Jun-25 11:30N 52°09' E 003°42'0 0.0
2015-Jun-25 10:33N 52°09' E 003°42'0 0.0
2015-Jun-25 09:33N 52°09' E 003°42'0 0.0
2015-Jun-25 08:33N 52°09' E 003°42'0 0.0
2015-Jun-25 05:33N 52°09' E 003°42'0 0.1
2015-Jun-25 04:21N 52°09' E 003°42'0 0.0
2015-Jun-25 03:27N 52°09' E 003°42'0 0.0
2015-Jun-25 02:30N 52°09' E 003°42'0 0.0
2015-Jun-25 01:33N 52°09' E 003°42'6 6.4
2015-Jun-25 00:33N 52°04' E 003°48'1111.5
2015-Jun-24 23:33N 51°59' E 004°05'1312.6
2015-Jun-24 22:34N 51°54' E 004°23'1 1.2
2015-Jun-24 21:33N 51°55' E 004°25'0 0.0
2015-Jun-24 20:33N 51°55' E 004°25'0 0.0
2015-Jun-24 19:33N 51°55' E 004°25'0 0.0
2015-Jun-24 18:33N 51°55' E 004°25'0 0.0
2015-Jun-24 17:33N 51°55' E 004°25'0 0.0
2015-Jun-24 16:33N 51°55' E 004°25'0 0.0
2015-Jun-24 15:33N 51°55' E 004°25'0 0.0
2015-Jun-24 14:33N 51°55' E 004°25'0 0.0
2015-Jun-24 13:33N 51°55' E 004°25'0 0.0
2015-Jun-24 12:33N 51°55' E 004°25'0 0.0
2015-Jun-24 11:33N 51°55' E 004°25'0 0.0
2015-Jun-24 10:33N 51°55' E 004°25'0 0.0
2015-Jun-24 09:33N 51°55' E 004°25'0 0.0
2015-Jun-24 08:30N 51°55' E 004°25'0 0.0
2015-Jun-24 07:33N 51°55' E 004°25'0 0.0
2015-Jun-24 06:33N 51°55' E 004°25'0 0.0
2015-Jun-24 05:33N 51°55' E 004°25'0 0.0
2015-Jun-24 04:33N 51°55' E 004°25'0 0.0
2015-Jun-24 03:33N 51°55' E 004°25'0 0.0
2015-Jun-24 02:33N 51°55' E 004°25'0 0.0
2015-Jun-24 01:33N 51°55' E 004°25'0 0.0
2015-Jun-24 00:30N 51°55' E 004°25'0 0.0
2015-Jun-23 22:33N 51°55' E 004°25'0 0.0
2015-Jun-23 21:33N 51°55' E 004°25'0 0.0
2015-Jun-23 20:33N 51°55' E 004°25'0 0.0
2015-Jun-23 19:33N 51°55' E 004°25'0 0.0
2015-Jun-23 19:06N 51°55' E 004°25'24 1.0
2015-Jun-22 19:33N 51°55' E 003°45'0 0.0
2015-Jun-22 18:33N 51°55' E 003°45'0 0.0
2015-Jun-22 16:30N 51°55' E 003°45'0 0.0
2015-Jun-22 15:27N 51°55' E 003°45'0 0.1
2015-Jun-22 14:33N 51°55' E 003°45'0 0.0
2015-Jun-22 13:27N 51°55' E 003°45'0 0.0
2015-Jun-22 12:30N 51°55' E 003°45'0 0.0
2015-Jun-22 11:33N 51°55' E 003°45'0 0.1
2015-Jun-22 10:33N 51°55' E 003°45'0 0.1
2015-Jun-22 09:33N 51°55' E 003°45'0 0.0
2015-Jun-22 08:33N 51°55' E 003°45'4 4.1
2015-Jun-22 07:33N 51°57' E 003°39'52 9.6
2015-Jun-22 02:09N 51°35' E 002°23'5 8.9
2015-Jun-22 01:33N 51°31' E 002°18'8 7.8
2015-Jun-22 00:34N 51°25' E 002°11'7 7.5
2015-Jun-21 23:34N 51°18' E 002°06'7 6.8
2015-Jun-21 22:33N 51°12' E 001°60'7 7.3
2015-Jun-21 21:33N 51°09' E 001°49'7 7.5
2015-Jun-21 20:34N 51°03' E 001°41'12 8.1
2015-Jun-21 19:08N 50°55' E 001°29'5 8.9
2015-Jun-21 18:33N 50°50' E 001°26'113 9.3
2015-Jun-21 06:26N 50°05' W 001°17'190 8.6
2015-Jun-20 08:26N 48°42' W 005°38'20 9.8
2015-Jun-20 06:21N 48°23' W 005°51'810.2
2015-Jun-20 05:33N 48°15' W 005°55'1010.4
2015-Jun-20 04:33N 48°06' W 006°01'1010.4
2015-Jun-20 03:33N 47°56' W 006°06'1010.3
2015-Jun-20 02:34N 47°46' W 006°11'10 9.9
2015-Jun-20 01:33N 47°37' W 006°16'12 9.1
2015-Jun-20 00:14N 47°26' W 006°22'17 9.1
2015-Jun-19 22:23N 47°10' W 006°31'  

Dump ship's entire track history